createdAt,value
2023-06-04T00:00:20.221Z,73.20
2023-06-04T00:01:20.185Z,73.36
2023-06-04T00:02:20.200Z,73.93
2023-06-04T00:03:20.347Z,74.19
2023-06-04T00:04:20.246Z,74.32
2023-06-04T00:05:20.142Z,74.26
2023-06-04T00:06:20.160Z,73.63
2023-06-04T00:07:20.145Z,73.80
2023-06-04T00:08:20.160Z,74.02
2023-06-04T00:09:20.173Z,74.50
2023-06-04T00:10:20.156Z,74.29
2023-06-04T00:11:20.147Z,74.27
2023-06-04T00:12:20.109Z,74.24
2023-06-04T00:13:20.147Z,73.91
2023-06-04T00:14:20.094Z,74.54
2023-06-04T00:15:20.112Z,74.13
2023-06-04T00:16:20.094Z,74.28
2023-06-04T00:17:20.071Z,74.37
2023-06-04T00:18:20.093Z,73.96
2023-06-04T00:19:20.083Z,74.20
2023-06-04T00:20:20.054Z,74.15
2023-06-04T00:21:20.040Z,73.59
2023-06-04T00:22:20.026Z,73.60
2023-06-04T00:23:20.031Z,73.24
2023-06-04T00:24:20.050Z,73.67
2023-06-04T00:25:20.041Z,73.56
2023-06-04T00:26:20.035Z,74.10
2023-06-04T00:27:20.001Z,73.53
2023-06-04T00:28:20.008Z,74.04
2023-06-04T00:29:19.974Z,73.82
2023-06-04T00:30:20.014Z,73.54
2023-06-04T00:31:19.992Z,73.25
2023-06-04T00:32:19.954Z,73.52
2023-06-04T00:33:20.040Z,73.37
2023-06-04T00:34:20.028Z,74.03
2023-06-04T00:35:20.093Z,74.36
2023-06-04T00:36:20.121Z,74.10
2023-06-04T00:37:20.108Z,73.94
2023-06-04T00:38:20.184Z,74.43
2023-06-04T00:39:20.215Z,74.96
2023-06-04T00:40:20.245Z,75.13
2023-06-04T00:41:20.260Z,74.76
2023-06-04T00:42:20.325Z,75.29
2023-06-04T00:43:20.339Z,74.47
2023-06-04T00:44:20.299Z,75.00
2023-06-04T00:45:20.358Z,74.30
2023-06-04T00:46:20.480Z,75.16
2023-06-04T00:47:20.403Z,74.27
2023-06-04T00:48:20.381Z,74.13
2023-06-04T00:49:20.423Z,73.63
2023-06-04T00:50:20.497Z,74.20
2023-06-04T00:51:20.468Z,74.37
2023-06-04T00:52:20.564Z,73.78
2023-06-04T00:53:20.549Z,73.58
2023-06-04T00:54:20.629Z,73.71
2023-06-04T00:55:20.643Z,74.12
2023-06-04T00:56:20.689Z,74.52
2023-06-04T00:57:20.713Z,74.07
2023-06-04T00:58:20.724Z,73.94
2023-06-04T00:59:20.716Z,74.43
2023-06-04T01:00:20.758Z,74.26
2023-06-04T01:01:20.805Z,74.53
2023-06-04T01:02:20.832Z,74.99
2023-06-04T01:03:20.836Z,74.76
2023-06-04T01:04:20.841Z,74.90
2023-06-04T01:05:20.877Z,74.68
2023-06-04T01:06:20.868Z,73.98
2023-06-04T01:07:22.018Z,73.58
2023-06-04T01:08:20.963Z,73.88
2023-06-04T01:09:20.987Z,74.99
2023-06-04T01:10:20.985Z,74.14
2023-06-04T01:11:21.041Z,74.03
2023-06-04T01:12:21.043Z,74.80
2023-06-04T01:13:21.049Z,74.91
2023-06-04T01:14:21.095Z,74.36
2023-06-04T01:15:21.064Z,75.25
2023-06-04T01:16:21.096Z,74.88
2023-06-04T01:17:21.236Z,74.96
2023-06-04T01:18:21.130Z,75.26
2023-06-04T01:19:21.149Z,75.37
2023-06-04T01:20:21.174Z,75.20
2023-06-04T01:21:21.193Z,74.56
2023-06-04T01:22:21.217Z,74.14
2023-06-04T01:23:21.254Z,74.46
2023-06-04T01:24:21.264Z,74.62
2023-06-04T01:25:21.256Z,73.84
2023-06-04T01:26:21.339Z,74.29
2023-06-04T01:27:21.367Z,73.77
2023-06-04T01:28:21.357Z,73.60
2023-06-04T01:29:21.398Z,73.15
2023-06-04T01:30:21.349Z,73.08
2023-06-04T01:31:21.515Z,72.95
2023-06-04T01:32:21.409Z,73.93
2023-06-04T01:33:21.453Z,73.91
2023-06-04T01:34:21.581Z,74.17
2023-06-04T01:35:21.545Z,73.71
2023-06-04T01:36:21.600Z,73.72
2023-06-04T01:37:21.594Z,73.56
2023-06-04T01:38:21.675Z,73.22
2023-06-04T01:39:21.679Z,72.92
2023-06-04T01:40:21.697Z,73.58
2023-06-04T01:41:21.754Z,73.10
2023-06-04T01:42:21.729Z,74.05
2023-06-04T01:43:21.790Z,74.40
2023-06-04T01:44:23.827Z,74.15
2023-06-04T01:45:21.855Z,74.20
2023-06-04T01:46:21.912Z,73.83
2023-06-04T01:47:21.922Z,74.10
2023-06-04T01:48:21.968Z,73.86
2023-06-04T01:49:21.999Z,73.70
2023-06-04T01:50:22.030Z,73.70
2023-06-04T01:51:22.061Z,73.03
2023-06-04T01:52:22.098Z,73.31
2023-06-04T01:53:22.109Z,73.14
2023-06-04T01:54:22.184Z,72.83
2023-06-04T01:55:22.223Z,73.06
2023-06-04T01:56:22.326Z,73.85
2023-06-04T01:57:22.240Z,72.94
2023-06-04T01:58:22.776Z,72.68
2023-06-04T01:59:22.385Z,73.07
2023-06-04T02:00:22.370Z,72.98
2023-06-04T02:01:22.382Z,73.39
2023-06-04T02:02:22.436Z,73.44
2023-06-04T02:03:22.461Z,73.21
2023-06-04T02:04:22.446Z,72.73
2023-06-04T02:05:22.476Z,73.33
2023-06-04T02:06:22.529Z,73.27
2023-06-04T02:07:22.580Z,73.07
2023-06-04T02:08:22.575Z,72.81
2023-06-04T02:09:22.688Z,72.78
2023-06-04T02:10:22.603Z,72.74
2023-06-04T02:11:22.622Z,72.32
2023-06-04T02:12:22.620Z,73.56
2023-06-04T02:13:22.734Z,73.71
2023-06-04T02:14:22.764Z,72.86
2023-06-04T02:15:22.785Z,73.33
2023-06-04T02:16:22.859Z,72.90
2023-06-04T02:17:22.849Z,72.96
2023-06-04T02:18:22.868Z,73.80
2023-06-04T02:19:22.915Z,73.30
2023-06-04T02:20:22.905Z,73.04
2023-06-04T02:21:22.968Z,72.90
2023-06-04T02:22:23.032Z,72.16
2023-06-04T02:23:23.057Z,72.34
2023-06-04T02:24:23.121Z,72.98
2023-06-04T02:25:23.111Z,73.45
2023-06-04T02:26:23.186Z,72.67
2023-06-04T02:27:24.044Z,72.27
2023-06-04T02:28:23.239Z,72.29
2023-06-04T02:29:23.296Z,72.18
2023-06-04T02:30:23.279Z,72.16
2023-06-04T02:31:23.319Z,72.25
2023-06-04T02:32:23.495Z,72.06
2023-06-04T02:33:23.342Z,72.56
2023-06-04T02:34:23.392Z,73.35
2023-06-04T02:35:23.409Z,73.23
2023-06-04T02:36:23.449Z,73.27
2023-06-04T02:37:23.485Z,73.09
2023-06-04T02:38:23.520Z,72.74
2023-06-04T02:39:23.481Z,72.89
2023-06-04T02:40:23.509Z,73.99
2023-06-04T02:41:23.576Z,73.25
2023-06-04T02:42:23.528Z,73.86
2023-06-04T02:43:23.576Z,73.39
2023-06-04T02:44:24.196Z,73.79
2023-06-04T02:45:23.615Z,73.24
2023-06-04T02:46:23.675Z,72.62
2023-06-04T02:47:23.701Z,72.75
2023-06-04T02:48:23.698Z,73.53
2023-06-04T02:49:23.705Z,72.85
2023-06-04T02:50:23.813Z,73.79
2023-06-04T02:51:23.828Z,73.44
2023-06-04T02:52:23.822Z,74.29
2023-06-04T02:53:23.847Z,74.30
2023-06-04T02:54:23.911Z,74.32
2023-06-04T02:55:23.928Z,73.94
2023-06-04T02:56:23.950Z,73.48
2023-06-04T02:57:23.985Z,74.05
2023-06-04T02:58:24.032Z,73.69
2023-06-04T02:59:24.050Z,73.64
2023-06-04T03:00:24.056Z,73.14
2023-06-04T03:01:24.126Z,72.97
2023-06-04T03:02:24.094Z,73.22
2023-06-04T03:03:24.164Z,73.42
2023-06-04T03:04:24.208Z,73.20
2023-06-04T03:05:24.275Z,72.80
2023-06-04T03:06:24.293Z,72.99
2023-06-04T03:07:24.342Z,73.59
2023-06-04T03:08:24.417Z,73.23
2023-06-04T03:09:24.383Z,73.60
2023-06-04T03:10:24.415Z,73.13
2023-06-04T03:11:24.452Z,72.99
2023-06-04T03:12:24.465Z,72.63
2023-06-04T03:13:24.481Z,72.43
2023-06-04T03:14:24.460Z,72.34
2023-06-04T03:15:24.477Z,72.03
2023-06-04T03:16:24.606Z,72.35
2023-06-04T03:17:24.544Z,72.82
2023-06-04T03:18:24.538Z,72.56
2023-06-04T03:19:24.642Z,73.20
2023-06-04T03:20:24.694Z,73.25
2023-06-04T03:21:24.647Z,72.45
2023-06-04T03:22:24.642Z,72.87
2023-06-04T03:23:24.737Z,72.50
2023-06-04T03:24:24.748Z,72.77
2023-06-04T03:25:24.760Z,73.08
2023-06-04T03:26:24.755Z,72.79
2023-06-04T03:27:24.779Z,72.34
2023-06-04T03:28:24.782Z,72.07
2023-06-04T03:29:24.794Z,71.83
2023-06-04T03:30:24.812Z,71.92
2023-06-04T03:31:24.862Z,72.60
2023-06-04T03:32:24.880Z,72.83
2023-06-04T03:33:24.860Z,72.03
2023-06-04T03:34:24.917Z,72.59
2023-06-04T03:35:24.915Z,72.22
2023-06-04T03:36:24.890Z,72.43
2023-06-04T03:37:25.001Z,71.89
2023-06-04T03:38:24.954Z,71.75
2023-06-04T03:39:24.962Z,71.63
2023-06-04T03:40:24.966Z,71.54
2023-06-04T03:41:24.965Z,71.59
2023-06-04T03:42:24.987Z,71.60
2023-06-04T03:43:25.033Z,72.58
2023-06-04T03:44:25.041Z,72.82
2023-06-04T03:45:25.042Z,72.00
2023-06-04T03:46:25.093Z,71.84
2023-06-04T03:47:25.147Z,72.34
2023-06-04T03:48:25.118Z,71.83
2023-06-04T03:49:25.125Z,71.58
2023-06-04T03:50:25.152Z,71.36
2023-06-04T03:51:25.198Z,71.25
2023-06-04T03:52:25.202Z,71.47
2023-06-04T03:53:25.263Z,71.43
2023-06-04T03:54:25.258Z,71.28
2023-06-04T03:55:25.298Z,71.48
2023-06-04T03:56:25.323Z,71.42
2023-06-04T03:57:25.328Z,71.14
2023-06-04T03:58:25.341Z,70.92
2023-06-04T03:59:25.411Z,70.85
2023-06-04T04:00:25.405Z,71.17
2023-06-04T04:01:25.411Z,71.54
2023-06-04T04:02:25.687Z,71.15
2023-06-04T04:03:25.602Z,70.91
2023-06-04T04:04:25.584Z,70.71
2023-06-04T04:05:25.552Z,71.26
2023-06-04T04:06:25.600Z,71.49
2023-06-04T04:07:25.591Z,71.33
2023-06-04T04:08:25.662Z,71.01
2023-06-04T04:09:25.696Z,70.90
2023-06-04T04:10:25.784Z,70.99
2023-06-04T04:11:25.819Z,70.85
2023-06-04T04:12:25.856Z,72.03
2023-06-04T04:13:25.908Z,71.95
2023-06-04T04:14:25.915Z,71.83
2023-06-04T04:15:25.978Z,71.27
2023-06-04T04:16:26.063Z,70.93
2023-06-04T04:17:26.022Z,71.62
2023-06-04T04:18:25.993Z,71.75
2023-06-04T04:19:26.047Z,71.21
2023-06-04T04:20:26.075Z,71.24
2023-06-04T04:21:26.130Z,70.86
2023-06-04T04:22:26.184Z,70.48
2023-06-04T04:23:26.204Z,70.19
2023-06-04T04:24:26.239Z,70.12
2023-06-04T04:25:26.238Z,69.87
2023-06-04T04:26:26.244Z,69.62
2023-06-04T04:27:26.267Z,68.93
2023-06-04T04:28:26.262Z,68.79
2023-06-04T04:29:26.259Z,69.19
2023-06-04T04:30:26.289Z,68.83
2023-06-04T04:31:26.364Z,68.64
2023-06-04T04:32:26.369Z,68.65
2023-06-04T04:33:26.353Z,68.22
2023-06-04T04:34:26.363Z,67.69
2023-06-04T04:35:26.419Z,67.62
2023-06-04T04:36:26.432Z,67.93
2023-06-04T04:37:26.485Z,68.18
2023-06-04T04:38:26.455Z,67.70
2023-06-04T04:39:26.549Z,67.34
2023-06-04T04:40:26.648Z,67.39
2023-06-04T04:41:26.625Z,67.05
2023-06-04T04:42:26.696Z,66.53
2023-06-04T04:43:26.722Z,66.22
2023-06-04T04:44:26.748Z,66.40
2023-06-04T04:45:26.735Z,66.31
2023-06-04T04:46:26.795Z,66.15
2023-06-04T04:47:26.800Z,65.53
2023-06-04T04:48:26.786Z,65.32
2023-06-04T04:49:26.861Z,65.05
2023-06-04T04:50:26.919Z,64.76
2023-06-04T04:51:26.913Z,64.14
2023-06-04T04:52:26.979Z,64.56
2023-06-04T04:53:27.002Z,64.25
2023-06-04T04:54:27.018Z,63.11
2023-06-04T04:55:27.033Z,63.17
2023-06-04T04:56:27.108Z,63.05
2023-06-04T04:57:27.078Z,60.80
2023-06-04T04:58:27.180Z,61.70
2023-06-04T04:59:27.165Z,60.95
2023-06-04T05:00:27.195Z,61.16
2023-06-04T05:01:27.302Z,59.76
2023-06-04T05:02:27.334Z,60.11
2023-06-04T05:03:27.277Z,59.62
2023-06-04T05:04:27.422Z,59.11
2023-06-04T05:05:27.374Z,59.14
2023-06-04T05:06:27.388Z,59.10
2023-06-04T05:07:27.414Z,58.68
2023-06-04T05:08:27.474Z,57.73
2023-06-04T05:09:27.521Z,58.71
2023-06-04T05:10:27.542Z,57.33
2023-06-04T05:11:27.495Z,57.42
2023-06-04T05:12:27.512Z,57.22
2023-06-04T05:13:27.597Z,57.27
2023-06-04T05:14:27.601Z,56.54
2023-06-04T05:15:27.893Z,56.29
2023-06-04T05:16:27.694Z,55.09
2023-06-04T05:17:27.695Z,55.10
2023-06-04T05:18:27.720Z,54.55
2023-06-04T05:19:27.801Z,55.31
2023-06-04T05:20:27.740Z,55.42
2023-06-04T05:21:27.803Z,55.20
2023-06-04T05:22:27.811Z,55.43
2023-06-04T05:23:27.832Z,55.85
2023-06-04T05:24:27.872Z,56.28
2023-06-04T05:25:27.841Z,56.43
2023-06-04T05:26:27.876Z,56.27
2023-06-04T05:27:27.874Z,56.33
2023-06-04T05:28:27.895Z,56.32
2023-06-04T05:29:27.955Z,55.97
2023-06-04T05:30:27.959Z,55.34
2023-06-04T05:31:28.024Z,55.65
2023-06-04T05:32:28.049Z,55.15
2023-06-04T05:33:28.003Z,55.40
2023-06-04T05:34:28.013Z,54.98
2023-06-04T05:35:28.031Z,54.19
2023-06-04T05:36:28.052Z,53.75
2023-06-04T05:37:28.068Z,54.28
2023-06-04T05:38:28.066Z,53.41
2023-06-04T05:39:28.080Z,52.95
2023-06-04T05:40:28.137Z,53.09
2023-06-04T05:41:28.186Z,52.46
2023-06-04T05:42:28.210Z,52.00
2023-06-04T05:43:28.251Z,51.89
2023-06-04T05:44:28.268Z,52.37
2023-06-04T05:45:28.267Z,52.15
2023-06-04T05:46:28.392Z,52.42
2023-06-04T05:47:28.449Z,51.97
2023-06-04T05:48:28.402Z,51.98
2023-06-04T05:49:28.402Z,52.42
2023-06-04T05:50:28.387Z,51.02
2023-06-04T05:51:28.373Z,51.93
2023-06-04T05:52:28.433Z,51.34
2023-06-04T05:53:28.632Z,51.87
2023-06-04T05:54:28.483Z,51.69
2023-06-04T05:55:28.496Z,50.90
2023-06-04T05:56:28.560Z,51.51
2023-06-04T05:57:28.561Z,49.84
2023-06-04T05:58:28.646Z,49.61
2023-06-04T05:59:28.689Z,49.49
2023-06-04T06:00:28.656Z,49.26
2023-06-04T06:01:28.674Z,49.34
2023-06-04T06:02:28.776Z,48.75
2023-06-04T06:03:28.903Z,48.51
2023-06-04T06:04:28.878Z,48.80
2023-06-04T06:05:28.824Z,48.19
2023-06-04T06:06:28.889Z,47.99
2023-06-04T06:07:28.880Z,47.46
2023-06-04T06:08:28.877Z,46.22
2023-06-04T06:09:28.952Z,47.33
2023-06-04T06:10:28.972Z,47.83
2023-06-04T06:11:29.028Z,47.76
2023-06-04T06:12:29.077Z,46.89
2023-06-04T06:13:29.088Z,47.24
2023-06-04T06:14:29.092Z,46.58
2023-06-04T06:15:29.136Z,46.59
2023-06-04T06:16:29.218Z,46.51
2023-06-04T06:17:29.246Z,47.67
2023-06-04T06:18:29.230Z,47.92
2023-06-04T06:19:29.227Z,48.11
2023-06-04T06:20:29.279Z,47.68
2023-06-04T06:21:29.277Z,47.91
2023-06-04T06:22:29.297Z,47.84
2023-06-04T06:23:29.341Z,48.11
2023-06-04T06:24:29.370Z,48.00
2023-06-04T06:25:29.373Z,47.45
2023-06-04T06:26:29.408Z,47.22
2023-06-04T06:27:29.419Z,46.20
2023-06-04T06:28:29.497Z,44.96
2023-06-04T06:29:29.498Z,45.07
2023-06-04T06:30:29.584Z,44.03
2023-06-04T06:31:29.621Z,44.69
2023-06-04T06:32:29.589Z,43.20
2023-06-04T06:33:29.638Z,42.77
2023-06-04T06:34:29.645Z,42.27
2023-06-04T06:35:30.107Z,42.33
2023-06-04T06:36:29.718Z,40.25
2023-06-04T06:37:29.713Z,40.48
2023-06-04T06:38:29.778Z,39.85
2023-06-04T06:39:29.766Z,39.54
2023-06-04T06:40:29.827Z,37.98
2023-06-04T06:41:29.891Z,37.60
2023-06-04T06:42:29.946Z,37.85
2023-06-04T06:43:29.965Z,37.08
2023-06-04T06:44:30.063Z,35.93
2023-06-04T06:45:30.077Z,36.96
2023-06-04T06:46:30.106Z,36.65
2023-06-04T06:47:30.143Z,35.55
2023-06-04T06:48:30.168Z,35.67
2023-06-04T06:49:30.206Z,35.67
2023-06-04T06:50:30.258Z,35.70
2023-06-04T06:51:30.263Z,34.70
2023-06-04T06:52:31.569Z,34.64
2023-06-04T06:53:30.330Z,35.40
2023-06-04T06:54:30.314Z,35.51
2023-06-04T06:55:30.289Z,35.06
2023-06-04T06:56:30.297Z,33.92
2023-06-04T06:57:30.307Z,33.98
2023-06-04T06:58:30.321Z,32.86
2023-06-04T06:59:30.320Z,32.02
2023-06-04T07:00:30.329Z,32.88
2023-06-04T07:01:30.357Z,32.53
2023-06-04T07:02:30.349Z,33.24
2023-06-04T07:03:30.285Z,32.59
2023-06-04T07:04:30.236Z,32.32
2023-06-04T07:05:30.259Z,31.84
2023-06-04T07:06:30.221Z,31.96
2023-06-04T07:07:30.208Z,31.32
2023-06-04T07:08:30.235Z,31.73
2023-06-04T07:09:30.237Z,31.94
2023-06-04T07:10:30.185Z,31.90
2023-06-04T07:11:30.188Z,32.50
2023-06-04T07:12:30.203Z,32.46
2023-06-04T07:13:30.140Z,33.84
2023-06-04T07:14:30.166Z,33.59
2023-06-04T07:15:30.177Z,33.51
2023-06-04T07:16:30.226Z,32.85
2023-06-04T07:17:30.157Z,32.23
2023-06-04T07:18:30.141Z,32.40
2023-06-04T07:19:30.147Z,32.68
2023-06-04T07:20:30.140Z,32.65
2023-06-04T07:21:30.100Z,32.75
2023-06-04T07:22:30.086Z,32.16
2023-06-04T07:23:30.182Z,33.46
2023-06-04T07:24:30.115Z,32.78
2023-06-04T07:25:30.075Z,33.33
2023-06-04T07:26:31.889Z,35.22
2023-06-04T07:27:30.082Z,37.33
2023-06-04T07:28:30.107Z,41.17
2023-06-04T07:29:30.072Z,40.27
2023-06-04T07:30:30.044Z,38.60
2023-06-04T07:31:30.080Z,37.89
2023-06-04T07:32:30.060Z,37.58
2023-06-04T07:33:30.739Z,36.65
2023-06-04T07:34:30.042Z,36.68
2023-06-04T07:35:30.033Z,37.85
2023-06-04T07:36:30.002Z,38.29
2023-06-04T07:37:30.003Z,37.66
2023-06-04T07:38:30.020Z,37.81
2023-06-04T07:39:30.075Z,38.30
2023-06-04T07:40:29.971Z,37.06
2023-06-04T07:41:30.023Z,36.49
2023-06-04T07:42:29.995Z,35.26
2023-06-04T07:43:29.936Z,33.36
2023-06-04T07:44:29.968Z,33.75
2023-06-04T07:45:30.907Z,32.68
2023-06-04T07:46:30.022Z,32.75
2023-06-04T07:47:29.995Z,32.15
2023-06-04T07:48:29.928Z,32.41
2023-06-04T07:49:29.979Z,31.82
2023-06-04T07:50:29.932Z,30.72
2023-06-04T07:51:29.874Z,30.49
2023-06-04T07:52:29.913Z,30.18
2023-06-04T07:53:29.894Z,30.03
2023-06-04T07:54:29.915Z,30.14
2023-06-04T07:55:29.878Z,30.47
2023-06-04T07:56:29.879Z,30.44
2023-06-04T07:57:29.896Z,29.65
2023-06-04T07:58:29.895Z,28.08
2023-06-04T07:59:29.929Z,28.83
2023-06-04T08:00:29.914Z,29.29
2023-06-04T08:01:29.915Z,30.25
2023-06-04T08:02:30.042Z,30.10
2023-06-04T08:03:30.119Z,29.66
2023-06-04T08:04:30.121Z,29.33
2023-06-04T08:05:30.088Z,29.46
2023-06-04T08:06:30.094Z,29.60
2023-06-04T08:07:30.156Z,29.01
2023-06-04T08:08:30.160Z,27.92
2023-06-04T08:09:30.206Z,28.52
2023-06-04T08:10:30.190Z,28.65
2023-06-04T08:11:30.228Z,28.13
2023-06-04T08:12:30.328Z,28.62
2023-06-04T08:13:30.354Z,28.36
2023-06-04T08:14:30.304Z,28.91
2023-06-04T08:15:30.406Z,29.10
2023-06-04T08:16:30.434Z,28.76
2023-06-04T08:17:30.402Z,29.12
2023-06-04T08:18:30.440Z,28.74
2023-06-04T08:19:30.417Z,28.64
2023-06-04T08:20:30.460Z,27.74
2023-06-04T08:21:30.492Z,28.27
2023-06-04T08:22:30.518Z,27.72
2023-06-04T08:23:30.565Z,27.72
2023-06-04T08:24:30.574Z,27.49
2023-06-04T08:25:30.600Z,27.19
2023-06-04T08:26:30.668Z,26.94
2023-06-04T08:27:30.674Z,26.91
2023-06-04T08:28:30.728Z,27.50
2023-06-04T08:29:30.755Z,27.51
2023-06-04T08:30:30.733Z,28.23
2023-06-04T08:31:30.822Z,27.28
2023-06-04T08:32:30.883Z,27.45
2023-06-04T08:33:30.893Z,26.50
2023-06-04T08:34:30.959Z,26.17
2023-06-04T08:35:30.939Z,27.64
2023-06-04T08:36:30.940Z,29.26
2023-06-04T08:37:30.973Z,30.61
2023-06-04T08:38:31.024Z,30.11
2023-06-04T08:39:31.066Z,29.86
2023-06-04T08:40:31.029Z,29.03
2023-06-04T08:41:31.127Z,27.70
2023-06-04T08:42:31.209Z,27.21
2023-06-04T08:43:31.167Z,26.39
2023-06-04T08:44:31.247Z,26.19
2023-06-04T08:45:31.275Z,26.69
2023-06-04T08:46:31.318Z,26.12
2023-06-04T08:47:31.347Z,26.59
2023-06-04T08:48:31.334Z,26.69
2023-06-04T08:49:31.378Z,28.23
2023-06-04T08:50:31.505Z,27.53
2023-06-04T08:51:31.445Z,26.86
2023-06-04T08:52:31.464Z,26.16
2023-06-04T08:53:31.573Z,25.67
2023-06-04T08:54:31.563Z,25.80
2023-06-04T08:55:31.611Z,25.96
2023-06-04T08:56:31.564Z,25.84
2023-06-04T08:57:31.645Z,26.42
2023-06-04T08:58:31.643Z,27.75
2023-06-04T08:59:31.658Z,26.86
2023-06-04T09:00:31.649Z,26.46
2023-06-04T09:01:31.768Z,27.50
2023-06-04T09:02:31.819Z,27.97
2023-06-04T09:03:31.787Z,30.66
2023-06-04T09:04:31.779Z,30.71
2023-06-04T09:05:31.821Z,29.13
2023-06-04T09:06:31.917Z,28.86
2023-06-04T09:07:31.911Z,28.94
2023-06-04T09:08:31.911Z,28.69
2023-06-04T09:09:32.010Z,28.14
2023-06-04T09:10:32.077Z,28.11
2023-06-04T09:11:32.093Z,28.37
2023-06-04T09:12:33.316Z,27.85
2023-06-04T09:13:32.116Z,28.96
2023-06-04T09:14:32.122Z,28.27
2023-06-04T09:15:32.169Z,29.12
2023-06-04T09:16:32.232Z,28.27
2023-06-04T09:17:32.235Z,27.64
2023-06-04T09:18:32.248Z,29.87
2023-06-04T09:19:32.261Z,31.00
2023-06-04T09:20:32.321Z,29.67
2023-06-04T09:21:32.309Z,29.31
2023-06-04T09:22:32.316Z,29.62
2023-06-04T09:23:32.414Z,32.72
2023-06-04T09:24:32.425Z,31.89
2023-06-04T09:25:32.465Z,34.38
2023-06-04T09:26:32.508Z,33.13
2023-06-04T09:27:32.468Z,32.75
2023-06-04T09:28:32.495Z,32.07
2023-06-04T09:29:32.519Z,31.63
2023-06-04T09:30:32.588Z,31.79
2023-06-04T09:31:32.709Z,31.16
2023-06-04T09:32:32.690Z,30.37
2023-06-04T09:33:32.661Z,29.95
2023-06-04T09:34:32.718Z,29.88
2023-06-04T09:35:32.725Z,30.43
2023-06-04T09:36:32.710Z,32.17
2023-06-04T09:37:32.767Z,32.39
2023-06-04T09:38:32.783Z,31.86
2023-06-04T09:39:32.836Z,34.26
2023-06-04T09:40:32.845Z,32.07
2023-06-04T09:41:32.856Z,31.97
2023-06-04T09:42:32.860Z,31.29
2023-06-04T09:43:32.922Z,30.94
2023-06-04T09:44:32.933Z,30.00
2023-06-04T09:45:33.223Z,28.93
2023-06-04T09:46:33.149Z,28.50
2023-06-04T09:47:33.032Z,27.97
2023-06-04T09:48:33.006Z,28.16
2023-06-04T09:49:33.071Z,28.18
2023-06-04T09:50:33.123Z,29.01
2023-06-04T09:51:33.160Z,29.31
2023-06-04T09:52:33.169Z,28.09
2023-06-04T09:54:31.138Z,27.27
2023-06-04T09:55:31.109Z,26.53
2023-06-04T09:56:31.108Z,28.13
2023-06-04T09:57:31.098Z,33.51
2023-06-04T09:58:31.078Z,33.58
2023-06-04T09:59:31.107Z,33.63
2023-06-04T10:00:31.077Z,31.86
2023-06-04T10:01:31.235Z,31.51
2023-06-04T10:02:31.095Z,30.31
2023-06-04T10:03:31.164Z,31.14
2023-06-04T10:04:31.038Z,32.35
2023-06-04T10:05:31.065Z,32.26
2023-06-04T10:06:31.025Z,32.18
2023-06-04T10:07:31.021Z,32.11
2023-06-04T10:08:31.033Z,31.51
2023-06-04T10:09:33.314Z,31.62
2023-06-04T10:10:31.119Z,32.18
2023-06-04T10:11:31.106Z,34.24
2023-06-04T10:12:31.120Z,33.74
2023-06-04T10:13:31.175Z,32.78
2023-06-04T10:14:31.204Z,32.14
2023-06-04T10:15:31.245Z,32.15
2023-06-04T10:16:34.688Z,31.49
2023-06-04T10:17:31.303Z,31.71
2023-06-04T10:18:31.269Z,31.67
2023-06-04T10:19:31.286Z,31.46
2023-06-04T10:20:31.256Z,30.96
2023-06-04T10:21:31.258Z,30.67
2023-06-04T10:22:31.261Z,31.52
2023-06-04T10:23:31.294Z,34.38
2023-06-04T10:24:31.215Z,33.39
2023-06-04T10:25:31.226Z,31.91
2023-06-04T10:26:31.206Z,31.34
2023-06-04T10:27:31.220Z,30.54
2023-06-04T10:28:31.178Z,29.91
2023-06-04T10:29:31.200Z,30.03
2023-06-04T10:30:31.184Z,29.89
2023-06-04T10:31:31.267Z,31.50
2023-06-04T10:32:31.201Z,30.79
2023-06-04T10:33:31.124Z,31.46
2023-06-04T10:34:31.178Z,32.40
2023-06-04T10:35:31.151Z,31.84
2023-06-04T10:36:31.145Z,31.19
2023-06-04T10:37:31.156Z,30.94
2023-06-04T10:38:31.102Z,30.73
2023-06-04T10:39:31.170Z,30.40
2023-06-04T10:40:31.120Z,29.96
2023-06-04T10:41:31.117Z,29.68
2023-06-04T10:42:31.104Z,29.49
2023-06-04T10:43:31.068Z,29.22
2023-06-04T10:44:31.087Z,29.59
2023-06-04T10:45:31.083Z,29.01
2023-06-04T10:46:31.070Z,29.08
2023-06-04T10:47:31.108Z,29.29
2023-06-04T10:48:31.077Z,28.66
2023-06-04T10:49:31.133Z,28.79
2023-06-04T10:50:31.005Z,29.94
2023-06-04T10:51:31.017Z,30.95
2023-06-04T10:52:31.024Z,30.32
2023-06-04T10:53:30.989Z,29.91
2023-06-04T10:54:31.013Z,30.29
2023-06-04T10:55:30.985Z,30.17
2023-06-04T10:56:30.972Z,29.70
2023-06-04T10:57:30.980Z,29.09
2023-06-04T10:58:30.985Z,29.09
2023-06-04T10:59:30.978Z,28.83
2023-06-04T11:00:30.959Z,29.46
2023-06-04T11:01:31.002Z,28.74
2023-06-04T11:02:30.989Z,29.62
2023-06-04T11:03:31.062Z,31.12
2023-06-04T11:04:31.027Z,30.11
2023-06-04T11:05:31.143Z,29.59
2023-06-04T11:06:31.152Z,29.92
2023-06-04T11:07:31.200Z,29.46
2023-06-04T11:08:31.230Z,30.03
2023-06-04T11:09:32.241Z,30.86
2023-06-04T11:10:31.338Z,31.00
2023-06-04T11:11:31.289Z,31.05
2023-06-04T11:12:31.289Z,30.79
2023-06-04T11:13:31.355Z,30.65
2023-06-04T11:14:31.365Z,30.67
2023-06-04T11:15:31.404Z,30.66
2023-06-04T11:16:31.434Z,31.15
2023-06-04T11:17:31.542Z,31.83
2023-06-04T11:18:31.525Z,31.43
2023-06-04T11:19:31.484Z,31.50
2023-06-04T11:20:31.536Z,31.70
2023-06-04T11:21:31.599Z,31.63
2023-06-04T11:22:31.618Z,32.00
2023-06-04T11:23:31.681Z,32.86
2023-06-04T11:24:31.661Z,32.72
2023-06-04T11:25:31.724Z,34.01
2023-06-04T11:26:31.774Z,33.33
2023-06-04T11:27:36.857Z,34.38
2023-06-04T11:28:32.818Z,34.32
2023-06-04T11:29:31.803Z,33.70
2023-06-04T11:30:31.782Z,35.49
2023-06-04T11:31:31.842Z,36.24
2023-06-04T11:32:31.858Z,36.85
2023-06-04T11:33:31.797Z,37.30
2023-06-04T11:34:31.817Z,37.91
2023-06-04T11:35:31.796Z,37.04
2023-06-04T11:36:31.783Z,36.16
2023-06-04T11:37:31.825Z,35.75
2023-06-04T11:38:31.717Z,36.05
2023-06-04T11:39:31.721Z,35.57
2023-06-04T11:40:31.733Z,34.90
2023-06-04T11:41:31.750Z,35.57
2023-06-04T11:42:31.698Z,35.61
2023-06-04T11:43:31.693Z,36.02
2023-06-04T11:44:31.776Z,38.24
2023-06-04T11:45:31.836Z,38.57
2023-06-04T11:46:31.777Z,38.20
2023-06-04T11:47:31.923Z,37.88
2023-06-04T11:48:31.957Z,37.20
2023-06-04T11:49:31.865Z,36.95
2023-06-04T11:50:31.946Z,35.83
2023-06-04T11:51:32.010Z,35.83
2023-06-04T11:52:32.033Z,36.00
2023-06-04T11:53:32.066Z,36.60
2023-06-04T11:54:32.141Z,37.09
2023-06-04T11:55:32.159Z,36.30
2023-06-04T11:56:32.151Z,35.46
2023-06-04T11:57:32.256Z,37.74
2023-06-04T11:58:32.200Z,36.98
2023-06-04T11:59:32.277Z,36.04
2023-06-04T12:00:32.287Z,35.49
2023-06-04T12:01:32.262Z,34.73
2023-06-04T12:02:32.330Z,34.29
2023-06-04T12:03:32.282Z,34.30
2023-06-04T12:04:32.306Z,35.80
2023-06-04T12:05:32.465Z,39.69
2023-06-04T12:06:32.363Z,38.82
2023-06-04T12:07:32.396Z,38.49
2023-06-04T12:08:32.412Z,37.74
2023-06-04T12:09:32.524Z,38.08
2023-06-04T12:10:32.513Z,37.62
2023-06-04T12:11:32.634Z,37.83
2023-06-04T12:12:32.614Z,37.02
2023-06-04T12:13:32.644Z,37.98
2023-06-04T12:14:32.724Z,37.30
2023-06-04T12:15:32.689Z,36.73
2023-06-04T12:16:32.738Z,35.91
2023-06-04T12:17:32.828Z,34.80
2023-06-04T12:18:32.815Z,34.61
2023-06-04T12:19:32.822Z,34.74
2023-06-04T12:20:32.867Z,33.82
2023-06-04T12:21:32.885Z,34.14
2023-06-04T12:22:32.888Z,33.51
2023-06-04T12:23:32.938Z,34.20
2023-06-04T12:24:32.921Z,33.35
2023-06-04T12:25:33.010Z,32.68
2023-06-04T12:26:33.032Z,32.81
2023-06-04T12:27:33.076Z,31.59
2023-06-04T12:28:33.084Z,31.02
2023-06-04T12:29:33.068Z,31.03
2023-06-04T12:30:33.151Z,31.31
2023-06-04T12:31:33.331Z,30.52
2023-06-04T12:32:33.241Z,30.87
2023-06-04T12:33:33.247Z,30.55
2023-06-04T12:34:33.269Z,30.61
2023-06-04T12:35:33.280Z,31.16
2023-06-04T12:36:33.292Z,31.06
2023-06-04T12:37:33.284Z,31.20
2023-06-04T12:38:33.363Z,30.35
2023-06-04T12:39:33.373Z,32.68
2023-06-04T12:40:33.422Z,32.16
2023-06-04T12:41:33.485Z,32.24
2023-06-04T12:42:33.492Z,32.45
2023-06-04T12:43:33.533Z,33.61
2023-06-04T12:44:35.697Z,33.51
2023-06-04T12:45:33.718Z,34.31
2023-06-04T12:46:33.763Z,34.18
2023-06-04T12:47:33.826Z,34.75
2023-06-04T12:48:33.812Z,34.70
2023-06-04T12:49:33.858Z,34.29
2023-06-04T12:50:33.876Z,34.54
2023-06-04T12:51:33.924Z,34.01
2023-06-04T12:52:33.972Z,34.00
2023-06-04T12:53:34.016Z,33.65